Time;durP1;ratioP1;P1;durP2;ratioP2;P2;SDS_P1;SDS_P2;PMS_P1;PMS_P2;Temp;Humidity;BMP_temperature;BMP_pressure;BME280_temperature;BME280_humidity;BME280_pressure;Samples;Min_cycle;Max_cycle;Signal;HPM_P1;HPM_P2
2021/12/26 00:01:02;;;;;;;7.57;3.05;;;;;;;-0.34;50.86;100982.25;4954767;28;20046;-54
2021/12/26 00:03:29;;;;;;;6.40;3.00;;;;;;;-0.44;51.36;100996.19;4951873;28;20066;-55
2021/12/26 00:05:56;;;;;;;6.40;3.17;;;;;;;-0.53;51.02;100990.53;4960380;28;20168;-53
2021/12/26 00:08:23;;;;;;;6.10;2.95;;;;;;;-0.66;51.39;100991.47;4956808;28;20161;-56
2021/12/26 00:10:49;;;;;;;9.88;3.30;;;;;;;-0.71;51.65;101003.13;4951485;28;20035;-55
2021/12/26 00:13:16;;;;;;;7.40;2.78;;;;;;;-0.70;51.28;101001.44;4953008;28;20270;-55
2021/12/26 00:15:41;;;;;;;8.60;3.28;;;;;;;-0.90;52.59;100997.66;4957702;28;20046;-56
2021/12/26 00:18:09;;;;;;;6.20;3.00;;;;;;;-1.01;51.33;100998.69;4953182;28;20053;-56
2021/12/26 00:20:34;;;;;;;7.90;3.20;;;;;;;-0.87;51.88;100998.75;4959021;28;20054;-55
2021/12/26 00:23:00;;;;;;;7.35;3.05;;;;;;;-0.88;51.52;100999.53;4950136;28;20049;-55
2021/12/26 00:25:25;;;;;;;6.38;2.97;;;;;;;-0.91;51.58;100995.91;4949286;28;20338;-55
2021/12/26 00:27:50;;;;;;;6.65;3.20;;;;;;;-0.97;51.88;101003.19;4961033;28;20426;-56
2021/12/26 00:30:18;;;;;;;8.27;3.45;;;;;;;-1.01;51.95;101001.25;4952813;28;20830;-55
2021/12/26 00:32:45;;;;;;;7.15;3.10;;;;;;;-1.05;51.59;101000.19;4953959;28;20445;-54
2021/12/26 00:35:12;;;;;;;6.40;2.88;;;;;;;-1.05;51.62;100999.31;4951076;28;20486;-56
2021/12/26 00:37:38;;;;;;;7.15;3.40;;;;;;;-0.98;52.24;101001.47;4974760;28;20045;-54
2021/12/26 00:40:05;;;;;;;7.30;3.10;;;;;;;-0.97;51.66;101004.09;4959641;28;20039;-56
2021/12/26 00:42:30;;;;;;;7.72;3.03;;;;;;;-1.14;52.51;100997.06;4956808;28;20036;-56
2021/12/26 00:44:56;;;;;;;6.30;3.15;;;;;;;-1.09;52.25;100990.53;4954162;28;20074;-56
2021/12/26 00:47:21;;;;;;;6.47;2.88;;;;;;;-1.15;52.45;100984.16;4949923;28;20052;-56
2021/12/26 00:49:47;;;;;;;9.00;3.15;;;;;;;-1.15;52.45;100995.28;4951625;28;20121;-57
2021/12/26 00:52:12;;;;;;;8.50;3.00;;;;;;;-1.09;52.35;100992.22;4952563;28;20046;-55
2021/12/26 00:54:37;;;;;;;6.32;3.00;;;;;;;-1.15;52.03;100991.84;4957493;28;20061;-53
2021/12/26 00:57:12;;;;;;;7.32;3.30;;;;;;;-1.11;52.10;100997.25;4951688;28;20053;-56
2021/12/26 00:59:37;;;;;;;7.13;3.30;;;;;;;-1.09;53.01;100988.00;4969429;28;20067;-57
2021/12/26 01:02:03;;;;;;;8.48;3.53;;;;;;;-1.10;52.41;100983.69;4954730;28;20411;-57
2021/12/26 01:04:28;;;;;;;7.35;3.60;;;;;;;-1.21;52.69;100984.69;4953442;28;20789;-57
2021/12/26 01:06:59;;;;;;;6.43;3.47;;;;;;;-1.09;53.01;100984.53;4954070;28;20050;-55
2021/12/26 01:09:28;;;;;;;7.82;3.35;;;;;;;-1.18;53.16;100986.56;4954018;28;20504;-55
2021/12/26 01:11:58;;;;;;;9.18;3.35;;;;;;;-1.23;54.34;100988.84;4956501;28;20057;-54
2021/12/26 01:14:26;;;;;;;7.18;3.17;;;;;;;-1.26;53.55;100983.50;4952161;28;20049;-56
2021/12/26 01:17:02;;;;;;;8.43;3.85;;;;;;;-1.29;53.32;100984.22;4956555;28;20053;-54
2021/12/26 01:19:34;;;;;;;7.85;3.53;;;;;;;-1.20;54.24;100993.25;4953312;28;20374;-56
2021/12/26 01:22:03;;;;;;;6.90;3.25;;;;;;;-1.17;53.85;100988.31;4952866;28;20680;-57
2021/12/26 01:24:28;;;;;;;9.70;3.53;;;;;;;-1.14;54.17;100996.16;4952317;28;20449;-54
2021/12/26 01:26:53;;;;;;;6.95;3.00;;;;;;;-1.23;53.92;100996.50;4947902;28;20051;-56
2021/12/26 01:29:19;;;;;;;7.90;3.42;;;;;;;-1.28;54.12;100991.09;4951995;28;20149;-57
2021/12/26 01:31:44;;;;;;;7.53;3.28;;;;;;;-1.26;53.82;100983.50;4961071;28;20516;-55
2021/12/26 01:34:10;;;;;;;8.15;3.47;;;;;;;-1.27;53.66;100977.50;4952317;28;20073;-56
2021/12/26 01:36:36;;;;;;;8.35;3.70;;;;;;;-1.23;53.88;100971.81;4955333;28;20125;-52
2021/12/26 01:39:03;;;;;;;10.93;3.47;;;;;;;-1.25;54.97;100965.72;4951137;28;20116;-56
2021/12/26 01:41:33;;;;;;;6.53;3.25;;;;;;;-1.31;54.15;100972.13;4944278;28;20499;-56
2021/12/26 01:44:03;;;;;;;8.80;3.30;;;;;;;-1.28;53.41;100977.44;4946613;28;20125;-56
2021/12/26 01:46:29;;;;;;;6.82;3.10;;;;;;;-1.34;54.10;100974.47;4955306;28;20104;-54
2021/12/26 01:49:07;;;;;;;5.90;3.03;;;;;;;-1.32;54.45;100976.34;4955450;28;20478;-55
2021/12/26 01:51:32;;;;;;;7.53;3.00;;;;;;;-1.31;54.03;100974.69;4951174;28;20054;-57
2021/12/26 01:54:03;;;;;;;7.38;3.20;;;;;;;-1.29;54.21;100968.88;4949061;28;20065;-54
2021/12/26 01:56:29;;;;;;;7.03;3.20;;;;;;;-1.29;54.28;100963.75;4956628;28;20387;-57
2021/12/26 01:58:56;;;;;;;8.65;3.47;;;;;;;-1.38;54.40;100969.97;4957394;28;20588;-56
2021/12/26 02:01:22;;;;;;;6.57;3.28;;;;;;;-1.42;53.94;100970.56;4948500;28;20041;-56
2021/12/26 02:03:47;;;;;;;7.90;3.30;;;;;;;-1.43;55.79;100962.03;4961030;28;20046;-55
2021/12/26 02:06:13;;;;;;;8.23;3.17;;;;;;;-1.36;54.30;100966.72;4965586;28;20042;-55
2021/12/26 02:08:38;;;;;;;7.40;3.60;;;;;;;-1.35;54.36;100965.94;4960067;28;20182;-54
2021/12/26 02:11:04;;;;;;;7.05;3.60;;;;;;;-1.40;54.89;100956.19;4979554;28;20482;-54
2021/12/26 02:13:30;;;;;;;5.93;3.13;;;;;;;-1.43;54.27;100958.56;4956810;28;20210;-55
2021/12/26 02:15:56;;;;;;;7.13;3.35;;;;;;;-1.53;55.43;100952.03;4958276;28;20038;-56
2021/12/26 02:18:22;;;;;;;6.35;3.22;;;;;;;-1.51;54.91;100952.09;4960357;28;20497;-55
2021/12/26 02:23:23;;;;;;;6.43;3.20;;;;;;;-1.48;54.99;100953.19;4953778;28;20072;-57
2021/12/26 02:28:26;;;;;;;7.60;3.17;;;;;;;-1.46;54.16;100946.47;4955802;28;20298;-56
2021/12/26 02:30:53;;;;;;;8.15;3.35;;;;;;;-1.51;55.92;100945.31;4959703;28;20066;-57
2021/12/26 02:33:19;;;;;;;8.38;3.25;;;;;;;-1.55;54.94;100942.47;4948205;28;20046;-56
2021/12/26 02:35:46;;;;;;;7.72;3.40;;;;;;;-1.60;54.85;100939.63;4959097;28;20085;-56
2021/12/26 02:38:12;;;;;;;6.50;3.28;;;;;;;-1.71;53.81;100940.66;4961940;28;20050;-54
2021/12/26 02:40:39;;;;;;;8.40;3.17;;;;;;;-1.72;53.87;100946.53;4960757;28;20173;-56
2021/12/26 02:43:05;;;;;;;7.63;3.20;;;;;;;-1.64;54.58;100946.22;4960972;28;20085;-54
2021/12/26 02:45:32;;;;;;;8.05;3.60;;;;;;;-1.53;53.95;100946.91;4952780;28;20042;-57
2021/12/26 02:47:58;;;;;;;6.10;3.08;;;;;;;-1.54;54.61;100941.69;4936823;28;20518;-56
2021/12/26 02:50:31;;;;;;;6.80;3.30;;;;;;;-1.55;53.29;100939.91;4962204;28;20141;-55
2021/12/26 02:53:02;;;;;;;6.93;3.40;;;;;;;-1.54;53.63;100934.03;4962020;28;21231;-55
2021/12/26 02:55:28;;;;;;;6.15;3.08;;;;;;;-1.68;52.80;100931.47;4955625;28;20050;-56
2021/12/26 02:58:02;;;;;;;7.40;2.80;;;;;;;-1.56;52.88;100927.91;4963481;28;20133;-56
2021/12/26 03:00:31;;;;;;;6.35;3.08;;;;;;;-1.57;53.76;100921.03;4952785;28;20042;-54
2021/12/26 03:02:58;;;;;;;8.93;3.25;;;;;;;-1.48;53.96;100919.94;4959079;28;20043;-55
2021/12/26 03:05:27;;;;;;;7.60;2.92;;;;;;;-1.47;53.10;100914.06;4955715;28;20782;-55
2021/12/26 03:07:52;;;;;;;7.40;3.30;;;;;;;-1.46;53.28;100902.13;4961002;28;20156;-58
2021/12/26 03:10:22;;;;;;;8.90;3.10;;;;;;;-1.45;54.09;100915.00;4960900;28;20046;-55
2021/12/26 03:12:49;;;;;;;8.55;3.17;;;;;;;-1.59;53.99;100903.06;4962042;28;20046;-56
2021/12/26 03:15:17;;;;;;;6.50;3.08;;;;;;;-1.63;54.49;100891.75;4950785;28;20061;-56
2021/12/26 03:17:42;;;;;;;9.05;2.80;;;;;;;-1.56;53.65;100887.91;4953720;28;20054;-56
2021/12/26 03:20:14;;;;;;;6.60;3.00;;;;;;;-1.52;53.21;100878.72;4962354;28;20448;-52
2021/12/26 03:22:40;;;;;;;6.65;2.95;;;;;;;-1.56;53.79;100881.91;4956660;28;20701;-54
2021/12/26 03:25:11;;;;;;;5.65;2.80;;;;;;;-1.55;53.24;100878.56;4960566;28;20069;-57
2021/12/26 03:27:37;;;;;;;7.13;3.22;;;;;;;-1.63;53.62;100894.31;4954182;28;20042;-60
2021/12/26 03:30:05;;;;;;;7.18;3.08;;;;;;;-1.63;53.61;100891.75;4959688;28;20383;-57
2021/12/26 03:32:31;;;;;;;6.55;3.03;;;;;;;-1.57;54.42;100896.34;4960131;28;20054;-57
2021/12/26 03:34:56;;;;;;;6.45;3.20;;;;;;;-1.68;53.48;100895.69;4954408;28;20137;-56
2021/12/26 03:37:23;;;;;;;7.00;3.08;;;;;;;-1.59;55.20;100899.63;4953828;28;20151;-56
2021/12/26 03:39:48;;;;;;;6.28;3.20;;;;;;;-1.58;54.14;100906.47;4960273;28;20045;-56
2021/12/26 03:42:14;;;;;;;7.13;3.50;;;;;;;-1.52;53.67;100891.53;4958795;28;20490;-57
2021/12/26 03:44:39;;;;;;;8.60;3.40;;;;;;;-1.54;54.09;100903.34;4961357;28;20042;-56
2021/12/26 03:47:05;;;;;;;5.30;3.03;;;;;;;-1.55;54.45;100901.56;4957096;28;20051;-55
2021/12/26 03:49:30;;;;;;;6.43;3.15;;;;;;;-1.62;54.93;100897.75;4952785;28;20030;-59
2021/12/26 03:51:55;;;;;;;6.55;3.05;;;;;;;-1.61;54.77;100890.97;4976155;28;20128;-58
2021/12/26 03:54:21;;;;;;;7.15;3.28;;;;;;;-1.54;54.39;100896.56;4956436;28;20550;-57
2021/12/26 03:56:46;;;;;;;7.38;3.20;;;;;;;-1.52;54.62;100891.53;4962961;28;20042;-56
2021/12/26 03:59:12;;;;;;;5.38;2.97;;;;;;;-1.61;55.59;100888.41;4957674;28;20612;-60
2021/12/26 04:01:37;;;;;;;6.05;2.78;;;;;;;-1.49;54.99;100881.50;4961057;28;20058;-57
2021/12/26 04:04:03;;;;;;;6.40;3.03;;;;;;;-1.54;55.63;100885.44;4954105;28;20577;-58
2021/12/26 04:06:29;;;;;;;7.63;2.97;;;;;;;-1.46;54.62;100880.00;4960507;28;20050;-57
2021/12/26 04:08:54;;;;;;;6.00;2.92;;;;;;;-1.48;54.81;100881.59;4960816;28;20046;-58
2021/12/26 04:11:19;;;;;;;6.57;3.25;;;;;;;-1.49;54.53;100881.50;4950907;28;20113;-57
2021/12/26 04:13:45;;;;;;;8.48;3.10;;;;;;;-1.61;54.63;100885.84;4979413;28;20143;-59
2021/12/26 04:16:11;;;;;;;6.65;2.85;;;;;;;-1.46;54.81;100884.22;4953252;28;20057;-58
2021/12/26 04:18:36;;;;;;;6.40;3.00;;;;;;;-1.47;54.83;100890.16;4948114;28;20352;-57
2021/12/26 04:21:02;;;;;;;6.97;2.97;;;;;;;-1.47;54.23;100879.94;4956495;28;20050;-56
2021/12/26 04:23:27;;;;;;;5.18;2.70;;;;;;;-1.38;54.15;100883.91;4948015;28;20092;-57
2021/12/26 04:25:53;;;;;;;5.80;2.90;;;;;;;-1.53;54.69;100877.88;4955643;28;20398;-57
2021/12/26 04:28:19;;;;;;;4.78;2.53;;;;;;;-1.42;54.59;100878.53;4962763;28;20542;-58
2021/12/26 04:30:46;;;;;;;6.75;2.97;;;;;;;-1.52;54.23;100866.84;4959539;28;20050;-57
2021/12/26 04:33:11;;;;;;;6.45;3.10;;;;;;;-1.63;53.53;100867.84;4942549;28;20034;-57
2021/12/26 04:35:36;;;;;;;6.40;3.00;;;;;;;-1.61;53.91;100866.28;4948140;28;20080;-58
2021/12/26 04:38:02;;;;;;;6.20;2.95;;;;;;;-1.51;54.37;100866.06;4958563;28;20054;-57
2021/12/26 04:40:27;;;;;;;6.20;2.75;;;;;;;-1.53;53.72;100867.66;4961022;28;20787;-59
2021/12/26 04:42:53;;;;;;;6.95;3.20;;;;;;;-1.50;54.32;100862.72;4958788;28;20070;-56
2021/12/26 04:45:18;;;;;;;6.82;3.40;;;;;;;-1.51;54.36;100865.16;4946174;28;20696;-55
2021/12/26 04:47:44;;;;;;;5.68;2.78;;;;;;;-1.45;54.60;100865.53;4956710;28;20557;-55
2021/12/26 04:50:13;;;;;;;6.25;2.92;;;;;;;-1.52;54.96;100861.72;4950119;28;20047;-56
2021/12/26 04:52:41;;;;;;;6.45;2.97;;;;;;;-1.54;54.64;100868.44;4958473;28;20042;-56
2021/12/26 04:55:07;;;;;;;7.90;3.00;;;;;;;-1.63;54.72;100865.31;4957299;28;20344;-57
2021/12/26 04:57:37;;;;;;;6.38;3.00;;;;;;;-1.64;54.62;100863.53;4955111;28;20437;-57
2021/12/26 05:00:07;;;;;;;6.65;2.83;;;;;;;-1.60;54.83;100851.84;4956201;28;20410;-55
2021/12/26 05:02:36;;;;;;;5.97;3.05;;;;;;;-1.71;54.16;100856.31;4955128;28;20060;-58
2021/12/26 05:05:07;;;;;;;7.82;3.03;;;;;;;-1.87;55.81;100858.69;4959605;28;20132;-55
2021/12/26 05:07:32;;;;;;;5.50;2.80;;;;;;;-1.73;54.90;100852.75;4953649;28;20065;-57
2021/12/26 05:09:58;;;;;;;6.45;3.08;;;;;;;-1.59;54.75;100848.50;4950626;28;20039;-57
2021/12/26 05:12:24;;;;;;;8.65;3.22;;;;;;;-1.66;54.11;100850.69;4958752;28;20182;-57
2021/12/26 05:14:50;;;;;;;5.25;2.70;;;;;;;-1.75;54.20;100867.09;4961291;28;20035;-56
2021/12/26 05:17:15;;;;;;;6.03;3.08;;;;;;;-1.80;53.35;100856.59;4934118;28;20073;-59
2021/12/26 05:19:41;;;;;;;5.72;2.90;;;;;;;-1.67;53.83;100860.81;4958122;28;20649;-57
2021/12/26 05:22:06;;;;;;;5.95;3.08;;;;;;;-1.72;54.42;100867.31;4957857;28;20046;-56
2021/12/26 05:24:32;;;;;;;5.57;2.90;;;;;;;-1.71;54.34;100861.41;4959645;28;20045;-57
2021/12/26 05:26:57;;;;;;;6.97;3.40;;;;;;;-1.61;54.17;100855.19;4949521;28;20043;-57
2021/12/26 05:29:28;;;;;;;6.88;3.17;;;;;;;-1.81;54.79;100854.84;4956604;28;20469;-58
2021/12/26 05:31:57;;;;;;;7.15;2.85;;;;;;;-1.72;54.68;100846.88;4963220;28;20093;-57
2021/12/26 05:34:22;;;;;;;6.47;3.03;;;;;;;-1.74;54.55;100841.66;4958862;28;21825;-57
2021/12/26 05:36:48;;;;;;;6.25;3.28;;;;;;;-1.83;54.51;100851.28;4962002;28;20046;-57
2021/12/26 05:39:14;;;;;;;6.97;2.97;;;;;;;-1.67;54.16;100845.47;4956400;28;20153;-60
2021/12/26 05:41:41;;;;;;;5.82;2.80;;;;;;;-1.78;53.93;100841.38;4956533;28;20481;-57
2021/12/26 05:44:07;;;;;;;7.63;3.20;;;;;;;-1.81;54.44;100838.63;4964345;28;20453;-57
2021/12/26 05:46:32;;;;;;;6.30;2.88;;;;;;;-1.71;54.57;100828.19;4958253;28;20073;-56
2021/12/26 05:49:00;;;;;;;5.97;3.15;;;;;;;-1.87;55.43;100820.34;4959921;28;20929;-57
2021/12/26 05:51:26;;;;;;;5.22;2.92;;;;;;;-1.78;55.34;100820.94;4952000;28;20137;-56
2021/12/26 05:53:51;;;;;;;6.15;3.00;;;;;;;-1.82;55.23;100824.94;4956649;28;20115;-55
2021/12/26 05:56:16;;;;;;;7.18;2.90;;;;;;;-1.82;55.06;100824.06;4962618;28;20505;-57
2021/12/26 05:58:42;;;;;;;6.75;3.28;;;;;;;-1.82;55.48;100822.41;4945868;28;20409;-56
2021/12/26 06:01:07;;;;;;;6.63;3.22;;;;;;;-1.75;54.70;100824.53;4960641;28;20130;-56
2021/12/26 06:03:33;;;;;;;7.88;3.15;;;;;;;-1.98;56.47;100822.25;4952326;28;20052;-57
2021/12/26 06:05:58;;;;;;;6.13;2.92;;;;;;;-1.93;55.80;100825.97;4963018;28;20494;-56
2021/12/26 06:08:23;;;;;;;5.35;2.70;;;;;;;-2.18;55.67;100823.56;4946552;28;20034;-57
2021/12/26 06:10:49;;;;;;;6.78;3.00;;;;;;;-1.85;55.06;100824.78;4976737;28;20044;-57
2021/12/26 06:13:14;;;;;;;7.10;3.30;;;;;;;-1.95;54.97;100832.66;4957704;28;20153;-57
2021/12/26 06:15:40;;;;;;;6.68;3.30;;;;;;;-1.92;55.99;100835.41;4965603;28;20116;-56
2021/12/26 06:18:05;;;;;;;6.13;3.08;;;;;;;-1.81;55.34;100836.94;4960676;28;20149;-57
2021/12/26 06:20:30;;;;;;;6.53;2.90;;;;;;;-1.80;55.00;100832.72;4962683;28;20573;-57
2021/12/26 06:22:56;;;;;;;6.70;3.17;;;;;;;-1.94;55.77;100830.97;4959258;28;20057;-57
2021/12/26 06:25:21;;;;;;;6.82;3.22;;;;;;;-1.79;55.36;100829.38;4953904;28;20621;-58
2021/12/26 06:27:47;;;;;;;7.07;3.10;;;;;;;-1.79;55.44;100829.38;4950284;28;20667;-56
2021/12/26 06:30:13;;;;;;;9.23;3.05;;;;;;;-1.80;56.06;100828.50;4962094;28;20661;-58
2021/12/26 06:32:38;;;;;;;7.85;3.40;;;;;;;-1.86;56.81;100825.56;4958023;28;20117;-57
2021/12/26 06:35:05;;;;;;;7.25;3.47;;;;;;;-1.76;56.15;100827.00;4963928;28;20046;-58
2021/12/26 06:37:30;;;;;;;7.13;3.40;;;;;;;-1.87;56.23;100828.00;4935095;28;20256;-56
2021/12/26 06:39:59;;;;;;;6.82;3.25;;;;;;;-1.92;57.24;100829.41;4959034;28;20391;-56
2021/12/26 06:42:24;;;;;;;6.40;3.13;;;;;;;-1.88;55.81;100822.03;4962483;28;20372;-57
2021/12/26 06:44:50;;;;;;;7.30;3.33;;;;;;;-1.81;55.60;100820.72;4957988;28;20631;-57
2021/12/26 06:47:15;;;;;;;7.82;3.60;;;;;;;-1.85;56.31;100829.88;4947606;28;20050;-61
2021/12/26 06:49:42;;;;;;;7.53;3.20;;;;;;;-1.92;56.99;100822.63;4952858;28;20493;-55
2021/12/26 06:52:07;;;;;;;8.63;3.15;;;;;;;-1.94;57.03;100830.97;4956710;28;20120;-57
2021/12/26 06:54:33;;;;;;;8.02;3.53;;;;;;;-1.97;56.61;100815.47;4958706;28;20063;-54
2021/12/26 06:56:58;;;;;;;6.97;3.30;;;;;;;-1.97;57.41;100812.91;4954971;28;20042;-55
2021/12/26 06:59:24;;;;;;;7.43;3.50;;;;;;;-2.00;56.94;100813.59;4949406;28;20042;-57
2021/12/26 07:01:49;;;;;;;8.02;3.60;;;;;;;-2.05;58.09;100809.88;4957928;28;20121;-56
2021/12/26 07:04:15;;;;;;;8.40;4.10;;;;;;;-2.11;57.76;100815.50;4957924;28;20053;-59
2021/12/26 07:06:40;;;;;;;7.47;3.15;;;;;;;-2.00;56.98;100807.59;4949429;28;20442;-55
2021/12/26 07:09:05;;;;;;;7.40;3.40;;;;;;;-2.07;56.68;100807.22;4960471;28;20069;-57
2021/12/26 07:11:31;;;;;;;7.97;3.40;;;;;;;-2.02;57.08;100810.09;4954956;28;21543;-56
2021/12/26 07:13:56;;;;;;;8.55;3.75;;;;;;;-1.98;57.34;100812.03;4957539;28;20065;-57
2021/12/26 07:16:23;;;;;;;7.90;3.55;;;;;;;-2.18;56.69;100812.47;4957535;28;20046;-54
2021/12/26 07:18:49;;;;;;;11.20;3.70;;;;;;;-2.09;57.32;100806.28;4959998;28;20046;-54
2021/12/26 07:21:16;;;;;;;8.23;3.42;;;;;;;-2.08;56.89;100804.59;4953258;28;20046;-54
2021/12/26 07:23:41;;;;;;;8.85;3.45;;;;;;;-2.09;57.38;100805.38;4952376;28;20046;-56
2021/12/26 07:26:07;;;;;;;5.85;3.08;;;;;;;-2.08;57.53;100807.16;4960504;28;20426;-53
2021/12/26 07:28:32;;;;;;;6.60;3.38;;;;;;;-1.95;56.88;100807.09;4956630;28;20066;-55
2021/12/26 07:30:58;;;;;;;7.85;3.78;;;;;;;-2.01;56.89;100811.81;4958301;28;20076;-56
2021/12/26 07:33:23;;;;;;;7.20;3.50;;;;;;;-2.03;57.24;100817.66;4948777;28;20452;-57
2021/12/26 07:35:48;;;;;;;7.80;3.47;;;;;;;-2.00;57.33;100811.03;4958502;28;20058;-55
2021/12/26 07:38:14;;;;;;;6.72;3.33;;;;;;;-2.11;57.40;100812.94;4974498;28;20042;-56
2021/12/26 07:40:40;;;;;;;6.60;3.03;;;;;;;-2.12;57.17;100823.06;4956996;28;20620;-56
2021/12/26 07:43:05;;;;;;;7.05;3.35;;;;;;;-2.13;56.60;100822.16;4958296;28;20108;-54
2021/12/26 07:45:30;;;;;;;6.47;3.20;;;;;;;-2.16;56.87;100813.44;4948896;28;20065;-56
2021/12/26 07:47:56;;;;;;;9.00;3.63;;;;;;;-2.05;57.33;100817.53;4948405;28;20050;-53
2021/12/26 07:50:26;;;;;;;6.47;3.47;;;;;;;-2.20;57.48;100816.59;4956385;28;20038;-55
2021/12/26 07:52:53;;;;;;;7.05;3.47;;;;;;;-2.07;57.40;100824.22;4959038;28;20512;-55
2021/12/26 07:55:18;;;;;;;8.02;3.53;;;;;;;-2.13;57.53;100824.72;4955367;28;20054;-53
2021/12/26 07:57:48;;;;;;;7.05;3.13;;;;;;;-1.95;57.32;100819.88;4956558;28;20837;-58
2021/12/26 08:00:14;;;;;;;8.00;3.35;;;;;;;-2.16;57.97;100824.53;4960406;28;20050;-55
2021/12/26 08:02:40;;;;;;;9.05;3.70;;;;;;;-2.01;57.33;100822.03;4954194;28;20575;-55
2021/12/26 08:05:05;;;;;;;8.65;3.80;;;;;;;-2.04;58.04;100821.88;4944467;28;20487;-54
2021/12/26 08:07:33;;;;;;;6.28;3.10;;;;;;;-1.92;56.75;100820.06;4949767;28;21782;-54
2021/12/26 08:09:59;;;;;;;6.85;3.30;;;;;;;-2.04;56.53;100816.75;4960134;28;20178;-53
2021/12/26 08:12:24;;;;;;;7.68;3.65;;;;;;;-1.94;57.83;100816.53;4960468;28;20462;-52
2021/12/26 08:14:49;;;;;;;6.85;3.55;;;;;;;-1.88;56.61;100816.91;4962892;28;20245;-54
2021/12/26 08:17:15;;;;;;;6.65;3.30;;;;;;;-1.76;56.39;100820.22;4949691;28;20074;-54
2021/12/26 08:19:40;;;;;;;8.60;3.30;;;;;;;-1.70;56.21;100823.16;4957296;28;20053;-57
2021/12/26 08:22:06;;;;;;;7.32;3.70;;;;;;;-1.74;56.94;100812.66;4958633;28;20069;-57
2021/12/26 08:24:31;;;;;;;6.55;3.42;;;;;;;-1.77;56.74;100818.44;4960117;28;20121;-56
2021/12/26 08:26:56;;;;;;;7.07;3.63;;;;;;;-1.72;56.95;100821.31;4956974;28;20085;-55
2021/12/26 08:29:23;;;;;;;7.60;3.92;;;;;;;-1.83;57.20;100809.56;4953195;28;20179;-55
2021/12/26 08:31:54;;;;;;;8.65;3.78;;;;;;;-1.69;56.39;100813.81;4956254;28;20490;-55
2021/12/26 08:34:22;;;;;;;8.13;3.58;;;;;;;-1.58;56.45;100814.44;4952548;28;20104;-56
2021/12/26 08:37:03;;;;;;;8.45;4.05;;;;;;;-1.41;56.10;100814.72;4958985;28;20058;-54
2021/12/26 08:39:33;;;;;;;9.45;4.03;;;;;;;-1.36;56.38;100820.97;4947869;28;20046;-52
2021/12/26 08:41:58;;;;;;;8.48;3.67;;;;;;;-1.44;56.72;100823.84;4958709;28;20050;-54
2021/12/26 08:44:24;;;;;;;10.85;4.28;;;;;;;-1.32;56.34;100825.47;4948784;28;20093;-57
2021/12/26 08:46:50;;;;;;;8.50;4.20;;;;;;;-1.19;55.70;100826.19;4955907;28;20647;-56
2021/12/26 08:49:16;;;;;;;10.60;4.35;;;;;;;-1.15;56.18;100818.78;4948274;28;20101;-54
2021/12/26 08:51:42;;;;;;;10.02;4.20;;;;;;;-1.19;56.91;100821.06;4959717;28;20093;-56
2021/12/26 08:54:07;;;;;;;7.75;3.80;;;;;;;-1.04;56.53;100827.09;4959458;28;20566;-56
2021/12/26 08:56:33;;;;;;;8.63;4.20;;;;;;;-0.91;56.18;100835.56;4951879;28;20042;-56
2021/12/26 08:58:58;;;;;;;8.18;4.07;;;;;;;-0.92;56.55;100835.50;4956492;28;20049;-56
2021/12/26 09:01:24;;;;;;;9.05;4.28;;;;;;;-0.95;56.70;100830.19;4948276;28;20335;-56
2021/12/26 09:03:49;;;;;;;10.13;4.03;;;;;;;-0.88;56.38;100834.88;4961378;28;20038;-53
2021/12/26 09:06:14;;;;;;;8.65;4.00;;;;;;;-0.68;56.34;100825.78;4965657;28;20050;-56
2021/12/26 09:08:40;;;;;;;9.55;4.32;;;;;;;-0.60;56.12;100824.53;4956641;28;20042;-56
2021/12/26 09:11:05;;;;;;;7.97;4.10;;;;;;;-0.74;56.05;100820.31;4961840;28;20188;-56
2021/12/26 09:13:33;;;;;;;8.68;4.10;;;;;;;-0.52;55.08;100816.50;4948297;28;20042;-56
2021/12/26 09:15:58;;;;;;;7.80;4.07;;;;;;;-0.60;56.22;100827.09;4960581;28;20745;-57
2021/12/26 09:18:23;;;;;;;9.05;4.50;;;;;;;-0.64;55.38;100820.91;4957923;28;20627;-57
2021/12/26 09:20:49;;;;;;;8.65;3.92;;;;;;;-0.69;55.12;100814.66;4961561;28;20134;-58
2021/12/26 09:23:14;;;;;;;10.27;4.22;;;;;;;-0.64;56.13;100817.47;4952027;28;20038;-58
2021/12/26 09:25:40;;;;;;;9.10;4.10;;;;;;;-0.52;55.64;100813.03;4955156;28;20057;-53
2021/12/26 09:28:05;;;;;;;9.15;4.10;;;;;;;-0.54;55.22;100812.94;4962223;28;20563;-56
2021/12/26 09:30:30;;;;;;;8.23;4.30;;;;;;;-0.57;56.11;100807.69;4952028;28;20973;-55
2021/12/26 09:32:56;;;;;;;10.13;4.35;;;;;;;-0.66;56.46;100819.06;4958199;28;20092;-57
2021/12/26 09:35:22;;;;;;;8.32;3.90;;;;;;;-0.68;56.43;100816.44;4948573;28;20503;-56
2021/12/26 09:37:48;;;;;;;8.98;4.55;;;;;;;-0.60;56.73;100820.28;4959629;28;20046;-56
2021/12/26 09:40:14;;;;;;;9.02;4.43;;;;;;;-0.62;56.37;100815.91;4968764;28;20053;-54
2021/12/26 09:42:40;;;;;;;11.30;4.20;;;;;;;-0.60;56.67;100814.28;4957615;28;20077;-55
2021/12/26 09:45:09;;;;;;;8.23;4.07;;;;;;;-0.52;56.19;100813.94;4954880;28;20034;-56
2021/12/26 09:47:37;;;;;;;8.75;4.18;;;;;;;-0.58;56.04;100813.59;4957301;28;20058;-55
2021/12/26 09:50:03;;;;;;;8.93;4.32;;;;;;;-0.35;56.30;100807.19;4958282;28;20398;-53
2021/12/26 09:52:29;;;;;;;7.85;4.05;;;;;;;-0.32;56.25;100798.78;4952011;28;20106;-55
2021/12/26 09:54:54;;;;;;;9.43;4.45;;;;;;;-0.30;56.00;100794.63;4962777;28;20544;-57
2021/12/26 09:57:20;;;;;;;8.25;4.32;;;;;;;-0.25;56.40;100790.66;4954152;28;20050;-56
2021/12/26 09:59:48;;;;;;;9.98;4.60;;;;;;;0.02;55.60;100791.25;4962223;28;20687;-55
2021/12/26 10:02:15;;;;;;;9.73;4.53;;;;;;;0.07;55.41;100782.13;4960620;28;20051;-55
2021/12/26 10:04:41;;;;;;;9.95;4.50;;;;;;;0.04;55.44;100784.53;4961714;28;20416;-56
2021/12/26 10:07:13;;;;;;;9.55;4.65;;;;;;;0.18;55.52;100771.66;4954864;28;20046;-56
2021/12/26 10:09:41;;;;;;;8.43;4.40;;;;;;;0.24;55.41;100776.25;4942358;28;20049;-57
2021/12/26 10:12:07;;;;;;;9.23;4.80;;;;;;;0.36;55.01;100770.06;4952676;28;20077;-54
2021/12/26 10:14:35;;;;;;;9.20;4.40;;;;;;;0.63;54.44;100770.59;4959815;28;20576;-56
2021/12/26 10:17:13;;;;;;;8.80;4.32;;;;;;;0.69;54.89;100762.31;4966808;28;20565;-55
2021/12/26 10:19:44;;;;;;;8.88;4.63;;;;;;;0.68;55.30;100766.56;4954716;28;20060;-55
2021/12/26 10:22:11;;;;;;;9.55;4.85;;;;;;;0.51;56.02;100759.72;4950384;28;20045;-55
2021/12/26 10:24:42;;;;;;;10.55;4.95;;;;;;;0.71;55.38;100758.16;4961068;28;20101;-56
2021/12/26 10:27:11;;;;;;;10.95;5.18;;;;;;;0.67;56.50;100759.66;4960480;28;20130;-57
2021/12/26 10:29:40;;;;;;;9.80;4.80;;;;;;;0.77;56.21;100750.78;4955507;28;21420;-57
2021/12/26 10:32:12;;;;;;;9.93;5.03;;;;;;;0.98;55.93;100756.06;4950287;28;20143;-56
2021/12/26 10:34:46;;;;;;;9.90;4.72;;;;;;;0.72;55.85;100747.09;4951786;28;20081;-58
2021/12/26 10:37:21;;;;;;;8.93;4.80;;;;;;;0.79;56.37;100750.03;4958790;28;20046;-55
2021/12/26 10:39:47;;;;;;;;;;;;;;;1.23;56.14;100741.06;4949091;28;20046;-55
2021/12/26 10:42:16;;;;;;;10.90;5.30;;;;;;;1.37;55.25;100736.59;4959551;28;20020;-56
2021/12/26 10:44:47;;;;;;;10.73;5.18;;;;;;;1.52;55.40;100734.78;4961026;28;20033;-57
2021/12/26 10:47:16;;;;;;;10.77;5.40;;;;;;;1.61;55.42;100727.47;4945031;28;20050;-57
2021/12/26 10:49:54;;;;;;;10.88;5.60;;;;;;;1.51;55.93;100730.44;4963800;28;20050;-56
2021/12/26 10:52:23;;;;;;;10.57;5.65;;;;;;;1.38;56.51;100730.66;4960203;28;20044;-58
2021/12/26 10:54:54;;;;;;;11.82;5.43;;;;;;;1.58;55.72;100735.06;4962290;28;20280;-57
2021/12/26 10:57:23;;;;;;;11.15;5.03;;;;;;;1.52;55.68;100735.66;4942263;28;20390;-58
2021/12/26 11:00:01;;;;;;;12.77;5.43;;;;;;;1.78;55.45;100735.97;4956096;28;20108;-56
2021/12/26 11:02:29;;;;;;;11.60;5.57;;;;;;;1.82;55.46;100735.31;4958601;28;20065;-56
2021/12/26 11:05:04;;;;;;;12.88;5.75;;;;;;;1.99;55.69;100734.38;4959201;28;20042;-57
2021/12/26 11:08:11;;;;;;;13.23;5.85;;;;;;;2.08;55.74;100726.19;4945588;28;20965;-55
2021/12/26 11:10:44;;;;;;;10.88;5.63;;;;;;;2.16;54.94;100720.59;4917546;28;20043;-56
2021/12/26 11:13:21;;;;;;;14.43;6.13;;;;;;;2.19;55.80;100719.84;4954851;28;20115;-59
2021/12/26 11:15:47;;;;;;;11.45;5.88;;;;;;;2.07;55.39;100714.16;4957285;28;20213;-56
2021/12/26 11:18:14;;;;;;;10.70;5.38;;;;;;;2.19;54.83;100718.16;4950841;28;20084;-57
2021/12/26 11:20:40;;;;;;;13.32;6.80;;;;;;;2.15;56.66;100716.25;4951574;28;20069;-56
2021/12/26 11:23:11;;;;;;;12.68;6.38;;;;;;;2.22;55.97;100707.13;4962281;28;20062;-56
2021/12/26 11:25:57;;;;;;;11.15;5.97;;;;;;;2.35;56.14;100715.44;4959601;28;20042;-57
2021/12/26 11:28:29;;;;;;;12.60;6.50;;;;;;;2.29;56.28;100698.84;4951930;28;20293;-57
2021/12/26 11:30:56;;;;;;;11.82;6.10;;;;;;;2.26;56.00;100701.28;4960178;28;20133;-56